Latest Coastal Weather Observations for Port Augusta

IDS60701

Issued at 10:51 am CDT Monday 5 December 2016 (issued every 10 minutes, with the page automatically refreshed every 10 minutes)

About coastal observations | Map of coastal stations | Coastal observations for SA | Marine services | Other Formats
Station Details ID: 018201 Name: PORT AUGUSTA AERO Lat: -32.51 Lon: 137.72 Height: 13.97 m
Data from the previous 72 hours. | See also: Recent months at Port Augusta
Date/Time
CDT
Temp
°C
Wind Pressure Rain since
9am
mm
Weather Cloud Vis
km
Sea
Height
m
Swell
Dir  Spd
kts
Gust
kts
hPa Trend Height
m
Period
s
Dir
05/10:30am 20.6 SSE 20 23 1013.5 - 0.0 - - 10 - - - -
05/10:00am 19.5 SSE 18 24 1013.6 - 0.0 - Partly cloudy 10 - - - -
05/09:30am 20.1 SSE 18 22 1013.7 - 0.0 - Partly cloudy 10 - - - -
05/09:00am 18.0 SSE 18 22 1012.7 - 0.0 - Cloudy 10 - - - -
05/08:30am 17.9 SSE 18 24 1012.7 - 0.0 - Partly cloudy 10 - - - -
05/08:00am 18.0 SSE 17 24 1012.6 - 0.0 - Partly cloudy 10 - - - -
05/07:42am 18.0 SSE 16 22 1012.5 - 0.0 - Partly cloudy 10 - - - -
05/07:30am 17.7 SE 17 23 1012.0 - 0.0 - Cloudy 10 - - - -
05/07:00am 18.0 SSE 17 21 1012.3 - 0.0 - Cloudy 10 - - - -
05/06:53am 18.3 SSE 15 21 1012.3 - 0.0 - Cloudy 10 - - - -
05/06:30am 18.3 S 16 21 1012.1 - 0.0 - Cloudy 10 - - - -
05/06:00am 18.3 S 15 19 1011.7 - 0.0 - Cloudy 10 - - - -
05/05:30am 18.3 S 17 23 1010.9 - 0.0 - Cloudy 10 - - - -
05/05:00am 18.4 S 18 23 1010.7 - 0.0 - Partly cloudy 10 - - - -
05/04:30am 18.2 SSE 16 22 1010.1 - 0.0 - - 10 - - - -
05/04:00am 18.6 SSE 17 21 1010.6 - 0.0 - Partly cloudy 10 - - - -
05/03:30am 18.8 S 15 20 1010.7 - 0.0 - Partly cloudy 10 - - - -
05/03:00am 19.0 S 17 23 1010.7 - 0.0 - Partly cloudy 10 - - - -
05/02:30am 19.1 S 19 23 1010.2 - 0.0 - Partly cloudy 10 - - - -
05/02:00am 19.2 SSE 17 24 1010.6 - 0.0 - Partly cloudy 10 - - - -
05/01:41am 19.3 SSE 20 25 1010.7 - 0.0 - Partly cloudy 10 - - - -
05/01:30am 19.4 SSE 19 24 1010.8 - 0.0 - Partly cloudy 10 - - - -
05/01:00am 19.8 SSE 24 30 1010.7 - 0.0 - Cloudy 10 - - - -
05/12:46am 20.1 SSE 23 29 1010.6 - 0.0 - Partly cloudy 10 - - - -
05/12:30am 20.3 SSE 24 32 1010.1 - 0.0 - - 10 - - - -
05/12:00am 21.4 SSE 22 28 1010.3 - 0.0 - Mostly clear 10 - - - -
 
Date/Time
CDT
Temp
°C
Wind Pressure Rain since
9am
mm
Weather Cloud Vis
km
Sea
Height
m
Swell
Dir  Spd
kts
Gust
kts
hPa Trend Height
m
Period
s
Dir
04/11:30pm 22.4 SE 21 28 1009.8 - 0.0 - Partly cloudy 10 - - - -
04/11:00pm 22.8 SE 24 31 1009.3 - 0.0 - Partly cloudy 10 - - - -
04/10:30pm 23.8 SE 19 24 1008.8 - 0.0 - Partly cloudy 10 - - - -
04/10:11pm 25.0 SSE 17 24 1008.1 - 0.0 - Partly cloudy 10 - - - -
04/10:00pm 30.0 SW 16 21 1007.5 - 0.0 - Partly cloudy 10 - - - -
04/09:30pm 32.3 WSW 11 23 1006.3 - 0.0 - Partly cloudy 10 - - - -
04/09:00pm 33.0 NW 7 8 1005.4 - 0.0 - Cloudy 10 - - - -
04/08:30pm 33.4 NNW 9 11 1004.9 - 0.0 - - 10 - - - -
04/08:00pm 34.4 WNW 10 13 1004.5 - 0.0 - - 10 - - - -
04/07:30pm 35.3 WNW 12 18 1003.9 - 0.0 - - 10 - - - -
04/07:00pm 35.4 NW 15 18 1003.6 - 0.0 - - 10 - - - -
04/06:30pm 35.3 WNW 13 17 1003.4 - 0.0 - - 10 - - - -
04/06:00pm 35.2 NW 15 19 1003.2 - 0.0 - Mostly cloudy 10 - - - -
04/05:30pm 34.7 N 11 15 1003.1 - 0.0 - - 10 - - - -
04/05:00pm 34.4 N 8 13 1003.6 - 0.0 - - 10 - - - -
04/04:30pm 34.9 NNW 11 17 1003.9 - 0.0 - - 10 - - - -
04/04:00pm 34.2 NE 9 11 1004.1 - 0.0 - - 10 - - - -
04/03:30pm 33.3 ENE 9 15 1004.5 - 0.0 - - 10 - - - -
04/03:00pm 32.8 ENE 8 11 1004.7 - 0.0 - Cloudy 10 - - - -
04/02:30pm 30.7 E 10 14 1005.3 - 0.0 - - 10 - - - -
04/02:00pm 29.6 E 10 13 1006.2 - 0.0 - - 10 - - - -
04/01:30pm 29.0 ESE 7 9 1007.3 - 0.0 - - 10 - - - -
04/01:00pm 27.8 SE 8 9 1008.0 - 0.0 - Partly cloudy 10 - - - -
04/12:30pm 28.2 SE 5 9 1008.4 - 0.0 - Partly cloudy 10 - - - -
04/12:00pm 28.1 ESE 3 5 1008.5 - 0.0 - Cloudy 10 - - - -
04/11:30am 27.7 SW 3 6 1008.9 - 0.0 - Partly cloudy 10 - - - -
04/11:00am 27.7 ESE 5 7 1008.7 - 0.0 - Partly cloudy 10 - - - -
04/10:30am 27.5 S 4 6 1008.7 - 0.0 - - 10 - - - -
04/10:00am 27.6 S 5 7 1008.6 - 0.0 - Partly cloudy 10 - - - -
04/09:30am 27.5 SSE 2 4 1009.3 - 0.0 - Partly cloudy 10 - - - -
04/09:00am 26.7 ESE 5 7 1009.3 - 0.0 - Cloudy 10 - - - -
04/08:30am 27.4 SSE 5 7 1009.2 - 0.0 - Partly cloudy 10 - - - -
04/08:00am 27.0 SE 6 9 1008.8 - 0.0 - Partly cloudy 10 - - - -
04/07:30am 26.1 SSE 6 9 1009.4 - 0.0 - Partly cloudy 10 - - - -
04/07:00am 25.5 SE 5 6 1009.1 - 0.0 - Partly cloudy 10 - - - -
04/06:30am 25.6 SSW 4 8 1008.9 - 0.0 - - 10 - - - -
04/06:00am 25.4 SE 5 7 1008.7 - 0.0 - Cloudy 10 - - - -
04/05:30am 26.5 CALM 0 3 1009.3 - 0.0 - - 10 - - - -
04/05:00am 28.0 W 12 20 1009.0 - 0.0 - Partly cloudy 10 - - - -
04/04:30am 24.3 WSW 4 5 1007.8 - 0.0 - Partly cloudy 10 - - - -
04/04:00am 24.3 N 6 12 1007.6 - 0.0 - Partly cloudy 10 - - - -
04/03:30am 24.3 NNE 7 10 1007.4 - 0.0 - Partly cloudy 10 - - - -
04/03:00am 24.8 NNE 6 7 1007.5 - 0.0 - Cloudy 10 - - - -
04/02:30am 24.9 N 6 7 1007.1 - 0.0 - - 10 - - - -
04/02:00am 25.1 NNW 1 4 1006.8 - 0.0 - - 10 - - - -
04/01:30am 25.3 W 5 6 1007.1 - 0.0 - - 10 - - - -
04/01:00am 24.9 ESE 4 6 1007.1 - 0.0 - - 10 - - - -
04/12:30am 25.0 ESE 4 6 1007.3 - 0.0 - - 10 - - - -
04/12:00am 26.0 ESE 5 7 1007.8 - 0.0 - - 10 - - - -
 
Date/Time
CDT
Temp
°C
Wind Pressure Rain since
9am
mm
Weather Cloud Vis
km
Sea
Height
m
Swell
Dir  Spd
kts
Gust
kts
hPa Trend Height
m
Period
s
Dir
03/11:30pm 26.2 ESE 9 11 1008.2 - 0.0 - - 10 - - - -
03/11:00pm 26.1 SE 9 12 1008.0 - 0.0 - - 10 - - - -
03/10:30pm 26.2 ESE 11 15 1008.4 - 0.0 - - 10 - - - -
03/10:00pm 26.0 NNW 3 10 1008.7 - 0.0 - - 10 - - - -
03/09:30pm 25.4 ESE 13 17 1008.5 - 0.0 - - 10 - - - -
03/09:00pm 25.7 ESE 13 17 1008.5 - 0.0 - - 10 - - - -
03/08:30pm 26.1 ESE 14 17 1008.1 - 0.0 - - 10 - - - -
03/08:00pm 27.7 SE 11 15 1007.8 - 0.0 - - 10 - - - -
03/07:30pm 30.0 SE 11 14 1007.5 - 0.0 - Partly cloudy 10 - - - -
03/07:00pm 33.0 SSE 14 18 1007.3 - 0.0 - Cloudy 10 - - - -
03/06:30pm 32.8 SE 11 18 1007.1 - 0.0 - Cloudy 10 - - - -
03/06:00pm 34.0 SE 11 16 1007.1 - 0.0 - Cloudy 10 - - - -
03/05:30pm 37.3 NW 6 12 1007.2 - 0.0 - Partly cloudy 10 - - - -
03/05:00pm 38.4 W 10 15 1007.3 - 0.0 - - 10 - - - -
03/04:30pm 38.2 WNW 7 15 1007.8 - 0.0 - - 10 - - - -
03/04:00pm 38.0 W 8 12 1008.1 - 0.0 - - 10 - - - -
03/03:30pm 36.8 ENE 5 8 1008.4 - 0.0 - - 10 - - - -
03/03:00pm 37.8 SSW 7 10 1008.9 - 0.0 - - 10 - - - -
03/02:30pm 35.8 SW 5 8 1009.2 - 0.0 - - 10 - - - -
03/02:00pm 35.9 NNW 7 12 1009.8 - 0.0 - - 10 - - - -
03/01:30pm 35.3 WNW 6 10 1010.2 - 0.0 - - 10 - - - -
03/01:00pm 34.5 N 5 7 1010.7 - 0.0 - - 10 - - - -
03/12:30pm 32.2 NE 5 9 1011.0 - 0.0 - Partly cloudy 10 - - - -
03/12:00pm 31.2 N 6 9 1011.4 - 0.0 - - 10 - - - -
03/11:30am 29.5 ENE 4 7 1011.6 - 0.0 - - 10 - - - -
03/11:00am 28.2 ESE 7 10 1011.6 - 0.0 - - 10 - - - -
03/10:30am 26.2 ESE 8 11 1011.8 - 0.0 - - 10 - - - -
03/10:00am 25.2 SE 8 10 1011.9 - 0.0 - - 10 - - - -
03/09:30am 24.6 SE 11 15 1012.0 - 0.0 - - 10 - - - -
03/09:00am 24.6 SE 11 14 1011.8 - 0.0 - Mostly clear 10 - - - -
03/08:30am 22.7 SE 11 14 1011.5 - 0.0 - - 10 - - - -
03/08:00am 21.6 SSE 7 9 1011.6 - 0.0 - - 10 - - - -
03/07:30am 19.6 SSE 7 10 1011.5 - 0.0 - - 10 - - - -
03/07:00am 18.6 SSE 8 11 1011.4 - 0.0 - - 10 - - - -
03/06:30am 18.1 SSE 7 9 1011.3 - 0.0 - - 10 - - - -
03/06:00am 18.5 SE 8 11 1011.0 - 0.0 - - 10 - - - -
03/05:30am 17.8 SSE 6 8 1011.0 - 0.0 - - 10 - - - -
03/05:00am 17.5 SE 2 4 1010.8 - 0.0 - - 10 - - - -
03/04:30am 17.4 SSE 7 9 1010.8 - 0.0 - - 10 - - - -
03/04:00am 17.6 SSE 8 9 1010.6 - 0.0 - - 10 - - - -
03/03:30am 17.8 ESE 5 7 1010.9 - 0.0 - - 10 - - - -
03/03:00am 17.5 ESE 5 7 1011.0 - 0.0 - Mostly clear 10 - - - -
03/02:30am 18.2 SE 8 11 1011.1 - 0.0 - - 10 - - - -
03/02:00am 18.1 SSE 15 20 1011.1 - 0.0 - - 10 - - - -
03/01:30am 18.2 SE 13 17 1011.9 - 0.0 - - 10 - - - -
03/01:00am 18.5 SE 10 14 1012.3 - 0.0 - - 10 - - - -
03/12:30am 18.7 SSE 14 19 1012.1 - 0.0 - - 10 - - - -
03/12:00am 19.3 SSE 13 19 1012.3 - 0.0 - - 10 - - - -
 
Date/Time
CDT
Temp
°C
Wind Pressure Rain since
9am
mm
Weather Cloud Vis
km
Sea
Height
m
Swell
Dir  Spd
kts
Gust
kts
hPa Trend Height
m
Period
s
Dir
02/11:30pm 19.6 SSE 16 21 1012.3 - 0.0 - - 10 - - - -
02/11:00pm 20.2 SSE 19 27 1012.1 - 0.0 - - 10 - - - -
02/10:30pm 20.7 SSE 19 25 1012.2 - 0.0 - - 10 - - - -
02/10:00pm 20.6 SSE 17 24 1012.4 - 0.0 - - 10 - - - -
02/09:48pm 20.5 SSE 15 25 1012.3 - 0.0 - - 10 - - - -
02/09:30pm 20.0 SSE 12 19 1012.6 - 0.0 - - 10 - - - -
02/09:00pm 19.9 S 12 17 1012.6 - 0.0 - Mostly clear 10 - - - -
02/08:30pm 20.2 SSE 16 26 1012.3 - 0.0 - - 10 - - - -
02/08:00pm 21.1 SSE 17 24 1011.8 - 0.0 - - 10 - - - -
02/07:30pm 22.2 SSE 19 24 1011.2 - 0.0 - - 10 - - - -
02/07:00pm 23.7 SE 19 25 1011.0 - 0.0 - - 10 - - - -
02/06:30pm 24.5 SE 19 26 1010.9 - 0.0 - - 10 - - - -
02/06:05pm 25.1 SE 17 27 1011.0 - 0.0 - - 10 - - - -
02/06:00pm 25.6 SE 19 27 1010.9 - 0.0 - - 10 - - - -
02/05:30pm 25.6 SE 18 24 1010.5 - 0.0 - - 10 - - - -
02/05:18pm 25.8 SE 17 27 1010.3 - 0.0 - - 10 - - - -
02/05:00pm 26.8 SE 21 27 1010.3 - 0.0 - - 10 - - - -
02/04:30pm 26.7 SE 19 25 1010.4 - 0.0 - - 10 - - - -
02/04:00pm 27.3 SE 20 26 1010.4 - 0.0 - - 10 - - - -
02/03:30pm 27.7 SE 18 24 1010.5 - 0.0 - - 10 - - - -
02/03:00pm 28.1 SE 20 26 1010.5 - 0.0 - - 10 - - - -
02/02:30pm 27.9 SE 20 25 1010.5 - 0.0 - - 10 - - - -
02/02:00pm 28.5 SSE 18 23 1010.8 - 0.0 - - 10 - - - -
02/01:30pm 27.1 SSE 16 22 1011.1 - 0.0 - - 10 - - - -
02/01:00pm 26.3 SSE 17 23 1011.4 - 0.0 - - 10 - - - -
02/12:30pm 26.1 SSE 17 24 1011.5 - 0.0 - - 10 - - - -
02/12:00pm 25.1 SSE 18 22 1011.7 - 0.0 - - 10 - - - -
02/11:30am 23.6 SSE 20 26 1012.0 - 0.0 - Partly cloudy 10 - - - -
02/11:00am 23.6 SSE 18 25 1012.2 - 0.0 - Partly cloudy 10 - - - -

Other Formats:

Comma delimited format used in spreadsheet applications
http://www.bom.gov.au/fwo/IDS60701/IDS60701.95666.axf

JavaScript Object Notation format (JSON) in row-major order
http://www.bom.gov.au/fwo/IDS60701/IDS60701.95666.json